createdAt,value
2022-09-02T00:01:04.032Z,1.20
2022-09-02T00:04:05.587Z,1.13
2022-09-02T00:06:50.222Z,1.10
2022-09-02T00:09:27.465Z,1.52
2022-09-02T00:12:02.299Z,1.33
2022-09-02T00:14:44.704Z,1.50
2022-09-02T00:17:23.061Z,1.45
2022-09-02T00:20:04.059Z,1.55
2022-09-02T00:22:41.594Z,1.35
2022-09-02T00:25:09.760Z,1.33
2022-09-02T00:28:02.681Z,1.50
2022-09-02T00:30:52.338Z,1.40
2022-09-02T00:33:32.427Z,1.45
2022-09-02T00:36:06.484Z,1.33
2022-09-02T00:38:50.017Z,1.27
2022-09-02T00:41:30.116Z,1.30
2022-09-02T00:44:02.262Z,1.33
2022-09-02T00:46:36.661Z,1.30
2022-09-02T00:49:45.172Z,1.50
2022-09-02T00:55:20.613Z,1.33
2022-09-02T00:58:32.973Z,1.30
2022-09-02T01:01:35.615Z,1.67
2022-09-02T01:04:11.872Z,1.60
2022-09-02T01:06:48.936Z,1.40
2022-09-02T01:09:35.627Z,1.33
2022-09-02T01:12:10.012Z,1.50
2022-09-02T01:14:49.755Z,1.10
2022-09-02T01:17:28.866Z,1.40
2022-09-02T01:20:04.528Z,1.63
2022-09-02T01:22:45.114Z,1.30
2022-09-02T01:25:26.582Z,1.40
2022-09-02T01:29:15.289Z,1.30
2022-09-02T01:31:49.291Z,1.52
2022-09-02T01:34:18.675Z,1.50
2022-09-02T01:37:01.086Z,1.52
2022-09-02T01:39:46.698Z,1.60
2022-09-02T01:42:20.383Z,1.80
2022-09-02T01:45:09.578Z,1.52
2022-09-02T01:50:57.238Z,2.10
2022-09-02T01:53:48.653Z,1.83
2022-09-02T01:56:18.007Z,1.80
2022-09-02T01:59:04.173Z,1.63
2022-09-02T02:01:32.426Z,1.88
2022-09-02T02:04:13.564Z,1.67
2022-09-02T02:06:58.500Z,2.05
2022-09-02T02:12:23.203Z,2.17
2022-09-02T02:14:56.206Z,1.90
2022-09-02T02:17:41.077Z,2.22
2022-09-02T02:20:19.075Z,1.85
2022-09-02T02:22:54.865Z,1.98
2022-09-02T02:25:26.391Z,2.15
2022-09-02T02:28:02.581Z,2.03
2022-09-02T02:30:35.487Z,2.10
2022-09-02T02:33:04.211Z,2.20
2022-09-02T02:35:46.818Z,1.95
2022-09-02T02:38:21.781Z,2.20
2022-09-02T02:40:51.552Z,2.22
2022-09-02T02:43:26.333Z,2.20
2022-09-02T02:46:01.418Z,1.95
2022-09-02T02:48:30.844Z,2.40
2022-09-02T02:51:07.962Z,1.83
2022-09-02T02:53:42.271Z,2.13
2022-09-02T02:56:14.332Z,2.45
2022-09-02T02:58:47.432Z,2.53
2022-09-02T03:01:19.589Z,2.10
2022-09-02T03:03:53.886Z,2.08
2022-09-02T03:06:30.391Z,2.33
2022-09-02T03:09:15.104Z,2.20
2022-09-02T03:11:46.138Z,2.00
2022-09-02T03:14:21.716Z,2.30
2022-09-02T03:17:00.354Z,2.72
2022-09-02T03:19:34.912Z,2.35
2022-09-02T03:22:22.983Z,2.55
2022-09-02T03:25:13.916Z,2.42
2022-09-02T03:27:46.144Z,2.10
2022-09-02T03:30:21.629Z,1.92
2022-09-02T03:33:07.378Z,1.83
2022-09-02T03:35:45.974Z,2.00
2022-09-02T03:38:35.197Z,1.92
2022-09-02T03:41:02.001Z,1.73
2022-09-02T03:43:38.465Z,1.83
2022-09-02T03:46:14.002Z,2.00
2022-09-02T03:48:56.631Z,1.90
2022-09-02T03:51:48.544Z,1.50
2022-09-02T03:54:46.263Z,1.70
2022-09-02T03:57:41.980Z,1.30
2022-09-02T04:00:33.145Z,1.45
2022-09-02T04:03:39.700Z,1.48
2022-09-02T04:06:41.994Z,1.45
2022-09-02T04:09:13.659Z,1.50
2022-09-02T04:11:57.607Z,1.63
2022-09-02T04:15:01.021Z,1.60
2022-09-02T04:17:58.046Z,1.30
2022-09-02T04:21:04.821Z,1.50
2022-09-02T04:29:31.701Z,1.50
2022-09-02T04:32:23.512Z,1.50
2022-09-02T04:35:15.741Z,2.00
2022-09-02T04:38:19.984Z,1.40
2022-09-02T04:51:16.391Z,1.50
2022-09-02T04:57:21.703Z,1.73
2022-09-02T05:00:34.249Z,1.58
2022-09-02T05:03:53.701Z,1.67
2022-09-02T05:07:05.777Z,1.55
2022-09-02T05:10:07.377Z,1.60
2022-09-02T05:20:04.333Z,1.55
2022-09-02T05:33:29.863Z,1.75
2022-09-02T05:37:09.444Z,1.60
2022-09-02T05:40:42.057Z,1.60
2022-09-02T05:47:02.758Z,1.50
2022-09-02T05:50:26.624Z,2.22
2022-09-02T05:54:12.359Z,1.88
2022-09-02T05:56:51.994Z,1.70
2022-09-02T06:03:35.031Z,1.63
2022-09-02T06:09:27.632Z,1.90
2022-09-02T06:11:54.174Z,1.92
2022-09-02T06:14:24.936Z,1.98
2022-09-02T06:16:52.757Z,1.75
2022-09-02T06:19:20.496Z,1.70
2022-09-02T06:21:48.328Z,1.80
2022-09-02T06:24:14.956Z,1.70
2022-09-02T06:26:41.942Z,1.90
2022-09-02T06:29:10.419Z,1.95
2022-09-02T06:31:37.093Z,1.40
2022-09-02T06:34:04.614Z,2.13
2022-09-02T06:36:31.543Z,2.38
2022-09-02T06:38:59.309Z,1.60
2022-09-02T06:41:28.415Z,1.80
2022-09-02T06:44:00.386Z,1.80
2022-09-02T06:46:38.917Z,1.95
2022-09-02T06:49:07.373Z,2.50
2022-09-02T06:51:41.458Z,1.67
2022-09-02T06:54:10.874Z,2.00
2022-09-02T06:56:41.811Z,1.95
2022-09-02T06:59:10.365Z,1.90
2022-09-02T07:01:37.332Z,1.80
2022-09-02T07:04:23.011Z,1.90
2022-09-02T07:06:52.604Z,1.70
2022-09-02T07:09:24.077Z,1.85
2022-09-02T07:11:50.957Z,2.08
2022-09-02T07:14:19.384Z,2.97
2022-09-02T07:16:49.507Z,1.80
2022-09-02T07:19:20.378Z,1.52
2022-09-02T07:21:49.330Z,1.67
2022-09-02T07:24:16.305Z,1.98
2022-09-02T07:26:43.057Z,1.70
2022-09-02T07:29:11.292Z,1.83
2022-09-02T07:31:39.661Z,1.63
2022-09-02T07:34:07.146Z,1.80
2022-09-02T07:36:34.982Z,1.80
2022-09-02T07:39:02.099Z,1.63
2022-09-02T07:41:28.534Z,1.80
2022-09-02T07:43:59.424Z,2.10
2022-09-02T07:46:26.396Z,2.35
2022-09-02T07:48:54.031Z,1.80
2022-09-02T07:51:20.480Z,1.90
2022-09-02T07:53:47.974Z,1.92
2022-09-02T07:56:14.809Z,1.90
2022-09-02T07:58:43.074Z,2.00
2022-09-02T08:01:10.228Z,1.90
2022-09-02T08:03:37.194Z,1.77
2022-09-02T08:06:04.159Z,1.77
2022-09-02T08:08:30.804Z,1.70
2022-09-02T08:10:57.427Z,1.92
2022-09-02T08:13:26.810Z,1.80
2022-09-02T08:15:54.710Z,2.03
2022-09-02T08:18:22.529Z,1.70
2022-09-02T08:20:49.256Z,2.20
2022-09-02T08:23:33.229Z,1.85
2022-09-02T08:26:02.548Z,1.73
2022-09-02T08:28:31.757Z,1.92
2022-09-02T08:30:59.250Z,2.00
2022-09-02T08:33:25.960Z,2.03
2022-09-02T08:35:52.389Z,2.15
2022-09-02T08:38:18.828Z,1.95
2022-09-02T08:40:45.340Z,2.10
2022-09-02T08:43:38.313Z,2.30
2022-09-02T08:46:05.197Z,2.00
2022-09-02T08:48:39.744Z,2.20
2022-09-02T08:51:10.346Z,2.13
2022-09-02T08:54:09.683Z,2.28
2022-09-02T08:56:36.444Z,1.70
2022-09-02T08:59:03.646Z,2.08
2022-09-02T09:01:46.185Z,1.75
2022-09-02T09:04:21.805Z,2.10
2022-09-02T09:09:41.161Z,2.40
2022-09-02T09:13:12.304Z,2.35
2022-09-02T09:15:58.916Z,2.20
2022-09-02T09:18:43.403Z,2.13
2022-09-02T09:21:11.383Z,2.20
2022-09-02T09:23:39.347Z,2.38
2022-09-02T09:26:12.297Z,2.15
2022-09-02T09:28:41.755Z,2.50
2022-09-02T09:31:10.998Z,3.03
2022-09-02T09:36:05.443Z,2.40
2022-09-02T09:38:36.601Z,2.30
2022-09-02T09:41:14.314Z,2.30
2022-09-02T09:43:40.815Z,2.40
2022-09-02T09:46:28.253Z,2.50
2022-09-02T09:48:54.773Z,2.58
2022-09-02T09:51:21.216Z,2.50
2022-09-02T09:53:47.904Z,2.53
2022-09-02T09:56:14.260Z,2.35
2022-09-02T09:58:40.551Z,2.60
2022-09-02T10:01:20.255Z,2.90
2022-09-02T10:03:54.262Z,3.13
2022-09-02T10:06:30.695Z,2.50
2022-09-02T10:09:06.051Z,2.70
2022-09-02T10:11:34.954Z,2.60
2022-09-02T10:14:07.124Z,2.50
2022-09-02T10:16:54.491Z,3.28
2022-09-02T10:19:50.225Z,3.30
2022-09-02T10:22:59.905Z,2.92
2022-09-02T10:25:57.827Z,2.65
2022-09-02T10:28:33.233Z,3.10
2022-09-02T10:33:57.294Z,3.40
2022-09-02T10:36:33.085Z,2.83
2022-09-02T10:39:08.994Z,2.95
2022-09-02T10:44:41.202Z,3.50
2022-09-02T10:47:29.387Z,2.60
2022-09-02T10:50:28.854Z,3.22
2022-09-02T10:53:11.884Z,3.30
2022-09-02T10:56:06.455Z,3.00
2022-09-02T10:58:50.384Z,3.10
2022-09-02T11:01:28.125Z,2.40
2022-09-02T11:04:22.710Z,3.00
2022-09-02T11:07:02.494Z,2.70
2022-09-02T11:09:34.020Z,2.72
2022-09-02T11:12:16.697Z,2.42
2022-09-02T11:15:04.340Z,2.72
2022-09-02T11:18:01.242Z,2.40
2022-09-02T11:20:38.726Z,2.90
2022-09-02T11:23:36.059Z,4.70
2022-09-02T11:26:08.337Z,2.35
2022-09-02T11:28:43.508Z,3.22
2022-09-02T11:31:16.888Z,2.75
2022-09-02T11:33:52.698Z,3.10
2022-09-02T11:36:19.335Z,2.70
2022-09-02T11:38:56.664Z,2.90
2022-09-02T11:41:38.163Z,2.50
2022-09-02T11:44:31.357Z,2.55
2022-09-02T11:47:15.609Z,2.55
2022-09-02T11:50:04.777Z,2.30
2022-09-02T11:52:53.767Z,2.60
2022-09-02T11:55:34.367Z,2.70
2022-09-02T11:58:00.953Z,3.33
2022-09-02T12:00:31.050Z,2.22
2022-09-02T12:03:11.533Z,2.38
2022-09-02T12:05:43.656Z,2.05
2022-09-02T12:08:13.367Z,2.20
2022-09-02T12:10:43.527Z,2.35
2022-09-02T12:13:12.548Z,2.45
2022-09-02T12:15:42.356Z,2.50
2022-09-02T12:18:30.185Z,4.03
2022-09-02T12:23:49.505Z,2.35
2022-09-02T12:26:17.713Z,2.42
2022-09-02T12:28:46.296Z,2.42
2022-09-02T12:31:34.593Z,2.50
2022-09-02T12:34:02.685Z,2.50
2022-09-02T12:36:41.371Z,2.45
2022-09-02T12:39:23.011Z,2.38
2022-09-02T12:42:14.231Z,2.47
2022-09-02T12:45:06.796Z,2.30
2022-09-02T12:47:58.983Z,2.28
2022-09-02T12:50:36.194Z,2.40
2022-09-02T12:53:35.017Z,2.30
2022-09-02T12:56:05.668Z,2.40
2022-09-02T12:58:42.858Z,2.30
2022-09-02T13:01:46.748Z,2.30
2022-09-02T13:04:51.073Z,2.58
2022-09-02T13:07:48.641Z,2.50
2022-09-02T13:10:43.167Z,2.38
2022-09-02T13:13:37.805Z,2.30
2022-09-02T13:16:06.880Z,2.15
2022-09-02T13:19:04.440Z,2.40
2022-09-02T13:21:50.130Z,2.30
2022-09-02T13:24:50.291Z,2.40
2022-09-02T13:27:33.611Z,2.50
2022-09-02T13:30:22.416Z,2.20
2022-09-02T13:33:09.358Z,2.50
2022-09-02T13:35:38.866Z,2.20
2022-09-02T13:38:05.817Z,2.40
2022-09-02T13:40:34.156Z,2.50
2022-09-02T13:43:13.729Z,2.63
2022-09-02T13:45:40.307Z,2.70
2022-09-02T13:48:26.357Z,2.40
2022-09-02T13:50:54.952Z,2.78
2022-09-02T13:53:45.940Z,2.50
2022-09-02T13:56:29.053Z,2.22
2022-09-02T13:58:58.495Z,2.72
2022-09-02T14:01:31.203Z,2.45
2022-09-02T14:04:00.783Z,2.58
2022-09-02T14:06:36.485Z,1.95
2022-09-02T14:09:06.503Z,2.05
2022-09-02T14:11:41.891Z,2.45
2022-09-02T14:14:11.568Z,2.08
2022-09-02T14:16:50.825Z,2.30
2022-09-02T14:19:33.124Z,2.20
2022-09-02T14:22:38.285Z,2.10
2022-09-02T14:25:27.505Z,2.38
2022-09-02T14:28:00.741Z,1.80
2022-09-02T14:30:38.634Z,2.28
2022-09-02T14:33:21.139Z,2.47
2022-09-02T14:36:17.870Z,2.30
2022-09-02T14:38:47.228Z,2.15
2022-09-02T14:41:16.665Z,2.15
2022-09-02T14:43:51.599Z,2.25
2022-09-02T14:49:17.500Z,2.70
2022-09-02T14:52:02.255Z,2.28
2022-09-02T14:54:48.029Z,2.42
2022-09-02T15:04:42.914Z,2.70
2022-09-02T15:17:03.071Z,2.42
2022-09-02T15:19:40.488Z,2.20
2022-09-02T15:22:25.383Z,2.42
2022-09-02T15:25:08.969Z,2.80
2022-09-02T15:27:45.809Z,2.40
2022-09-02T15:30:54.482Z,2.30
2022-09-02T15:33:31.360Z,2.40
2022-09-02T15:37:14.949Z,2.42
2022-09-02T15:39:58.469Z,2.67
2022-09-02T16:04:35.505Z,2.50
2022-09-02T16:24:05.046Z,2.42
2022-09-02T16:54:04.546Z,3.15
2022-09-02T16:57:34.387Z,3.22
2022-09-02T17:00:11.597Z,2.65
2022-09-02T17:06:39.885Z,3.08
2022-09-02T17:51:19.772Z,3.22
2022-09-02T18:12:07.498Z,2.85
2022-09-02T18:14:58.149Z,2.65
2022-09-02T18:28:47.618Z,2.40
2022-09-02T18:35:09.989Z,3.08
2022-09-02T18:37:42.275Z,3.00
2022-09-02T18:40:36.697Z,3.45
2022-09-02T18:43:10.811Z,3.20
2022-09-02T18:45:48.348Z,5.63
2022-09-02T18:48:19.060Z,3.13
2022-09-02T18:50:52.439Z,2.95
2022-09-02T18:53:24.062Z,3.30
2022-09-02T18:55:52.169Z,3.22
2022-09-02T18:58:48.752Z,2.63
2022-09-02T19:01:25.519Z,2.80
2022-09-02T19:03:52.205Z,2.80
2022-09-02T19:06:22.502Z,3.08
2022-09-02T19:08:54.660Z,3.75
2022-09-02T19:11:21.881Z,2.33
2022-09-02T19:13:50.289Z,2.90
2022-09-02T19:16:28.539Z,3.65
2022-09-02T19:18:54.990Z,3.72
2022-09-02T19:21:44.316Z,2.92
2022-09-02T19:24:14.997Z,3.60
2022-09-02T19:26:43.384Z,3.90
2022-09-02T19:29:12.876Z,2.70
2022-09-02T19:31:41.324Z,3.17
2022-09-02T19:34:08.234Z,3.03
2022-09-02T19:36:36.865Z,4.63
